Time;durP1;ratioP1;P1;durP2;ratioP2;P2;SDS_P1;SDS_P2;PMS_P1;PMS_P2;Temp;Humidity;BMP_temperature;BMP_pressure;BME280_temperature;BME280_humidity;BME280_pressure;Samples;Min_cycle;Max_cycle;Signal;HPM_P1;HPM_P2
2023/01/09 00:01:59;;;;;;;;;;;12.50;99.90;;;;;;5071057;28;20010;-76
2023/01/09 00:04:24;;;;;;;;;;;12.50;99.90;;;;;;5071553;28;19951;-75
2023/01/09 00:06:53;;;;;;;;;;;12.50;99.90;;;;;;5071366;28;19911;-75
2023/01/09 00:09:22;;;;;;;;;;;12.50;99.90;;;;;;5071006;28;20295;-74
2023/01/09 00:11:59;;;;;;;;;;;12.50;99.90;;;;;;5055973;28;19919;-77
2023/01/09 00:14:25;;;;;;;;;;;12.50;99.90;;;;;;5091635;28;19936;-75
2023/01/09 00:16:56;;;;;;;;;;;12.50;99.90;;;;;;5089956;28;19949;-75
2023/01/09 00:19:23;;;;;;;;;;;12.40;99.90;;;;;;5091117;28;19904;-74
2023/01/09 00:21:58;;;;;;;;;;;12.30;99.90;;;;;;5090185;28;19904;-75
2023/01/09 00:24:24;;;;;;;;;;;12.30;99.90;;;;;;5091088;28;19908;-75
2023/01/09 00:26:50;;;;;;;;;;;12.30;99.90;;;;;;5095171;28;19930;-75
2023/01/09 00:29:16;;;;;;;;;;;12.30;99.90;;;;;;5095013;28;20289;-75
2023/01/09 00:32:08;;;;;;;;;;;12.20;99.90;;;;;;5095280;28;19922;-71
2023/01/09 00:34:36;;;;;;;;;;;12.30;99.90;;;;;;5095263;28;19904;-75
2023/01/09 00:37:10;;;;;;;;;;;12.30;99.90;;;;;;5095244;28;19911;-76
2023/01/09 00:39:40;;;;;;;;;;;12.30;99.90;;;;;;5076341;28;19914;-74
2023/01/09 00:42:13;;;;;;;;;;;12.40;99.90;;;;;;5076394;28;20381;-74
2023/01/09 00:44:41;;;;;;;;;;;12.40;99.90;;;;;;5095142;28;20335;-74
2023/01/09 00:47:12;;;;;;;;;;;12.40;99.90;;;;;;5094922;28;19929;-75
2023/01/09 00:49:38;;;;;;;;;;;12.40;99.90;;;;;;5094738;28;19908;-75
2023/01/09 00:52:05;;;;;;;;;;;12.40;99.90;;;;;;5094692;28;19912;-74
2023/01/09 00:54:32;;;;;;;;;;;12.40;99.90;;;;;;5094655;28;19999;-75
2023/01/09 00:56:59;;;;;;;;;;;12.40;99.90;;;;;;5093460;28;19915;-74
2023/01/09 00:59:26;;;;;;;;;;;12.40;99.90;;;;;;5094264;28;20037;-75
2023/01/09 01:01:58;;;;;;;;;;;12.40;99.90;;;;;;5094916;28;20049;-76
2023/01/09 01:09:59;;;;;;;;;;;12.40;99.90;;;;;;5095351;28;19938;-75
2023/01/09 01:12:27;;;;;;;;;;;12.40;99.90;;;;;;5094659;28;19916;-75
2023/01/09 01:14:56;;;;;;;;;;;12.40;99.90;;;;;;5076563;28;20356;-74
2023/01/09 01:17:22;;;;;;;;;;;12.40;99.90;;;;;;5095001;28;19904;-74
2023/01/09 01:19:48;;;;;;;;;;;12.40;99.90;;;;;;5094685;28;19972;-76
2023/01/09 01:22:25;;;;;;;;;;;12.40;99.90;;;;;;5094627;28;20243;-76
2023/01/09 01:24:58;;;;;;;;;;;12.50;99.90;;;;;;5094564;28;19920;-74
2023/01/09 01:27:29;;;;;;;;;;;12.50;99.90;;;;;;5076183;28;19949;-75
2023/01/09 01:29:58;;;;;;;;;;;12.50;99.90;;;;;;5094403;28;19916;-75
2023/01/09 01:32:25;;;;;;;;;;;12.40;99.90;;;;;;5094458;28;19934;-74
2023/01/09 01:34:56;;;;;;;;;;;12.50;99.90;;;;;;5094843;28;20305;-75
2023/01/09 01:37:26;;;;;;;;;;;12.50;99.90;;;;;;5093868;28;19927;-74
2023/01/09 01:39:53;;;;;;;;;;;12.50;99.90;;;;;;5094357;28;19903;-74
2023/01/09 01:42:28;;;;;;;;;;;12.50;99.90;;;;;;5075748;28;19908;-76
2023/01/09 01:44:59;;;;;;;;;;;12.50;99.90;;;;;;5094675;28;20261;-74
2023/01/09 01:47:31;;;;;;;;;;;12.50;99.90;;;;;;5094602;28;19904;-75
2023/01/09 01:50:03;;;;;;;;;;;12.50;99.90;;;;;;5094214;28;20297;-75
2023/01/09 01:52:29;;;;;;;;;;;12.50;99.90;;;;;;5093988;28;19923;-75
2023/01/09 01:54:55;;;;;;;;;;;12.40;99.90;;;;;;5094078;28;20334;-75
2023/01/09 01:57:31;;;;;;;;;;;12.40;99.90;;;;;;5093822;28;20018;-74
2023/01/09 01:59:58;;;;;;;;;;;12.40;99.90;;;;;;5094257;28;19912;-76
2023/01/09 02:02:31;;;;;;;;;;;12.30;99.90;;;;;;5093286;28;20037;-75
2023/01/09 02:04:58;;;;;;;;;;;12.30;99.90;;;;;;5093833;28;19904;-75
2023/01/09 02:07:24;;;;;;;;;;;12.30;99.90;;;;;;5093837;28;20355;-75
2023/01/09 02:09:50;;;;;;;;;;;12.30;99.90;;;;;;5094119;28;20021;-75
2023/01/09 02:12:23;;;;;;;;;;;12.30;99.90;;;;;;5075562;28;19923;-80
2023/01/09 02:14:51;;;;;;;;;;;12.40;99.90;;;;;;5075882;28;19946;-74
2023/01/09 02:17:56;;;;;;;;;;;12.30;99.90;;;;;;5093586;28;19930;-76
2023/01/09 02:20:56;;;;;;;;;;;12.30;99.90;;;;;;5011598;28;19949;-76
2023/01/09 02:23:22;;;;;;;;;;;12.30;99.90;;;;;;5011906;28;20012;-74
2023/01/09 02:26:00;;;;;;;;;;;12.30;99.90;;;;;;5011609;28;20265;-73
2023/01/09 02:28:38;;;;;;;;;;;12.30;99.90;;;;;;5010872;28;19916;-75
2023/01/09 02:31:10;;;;;;;;;;;12.30;99.90;;;;;;5011288;28;19917;-75
2023/01/09 02:33:39;;;;;;;;;;;12.20;99.90;;;;;;5011232;28;19906;-75
2023/01/09 02:36:23;;;;;;;;;;;12.30;99.90;;;;;;5010970;28;20039;-76
2023/01/09 02:39:07;;;;;;;;;;;12.30;99.90;;;;;;5011735;28;19909;-71
2023/01/09 02:41:45;;;;;;;;;;;12.30;99.90;;;;;;4974641;28;19955;-76
2023/01/09 02:44:15;;;;;;;;;;;12.30;99.90;;;;;;4980241;28;19906;-74
2023/01/09 02:46:41;;;;;;;;;;;12.30;99.90;;;;;;4982145;28;20000;-71
2023/01/09 02:49:15;;;;;;;;;;;12.40;99.90;;;;;;4980218;28;20012;-74
2023/01/09 02:51:44;;;;;;;;;;;12.30;99.90;;;;;;5041998;28;19912;-74
2023/01/09 02:54:16;;;;;;;;;;;12.30;99.90;;;;;;5062859;28;19905;-74
2023/01/09 02:56:54;;;;;;;;;;;12.30;99.90;;;;;;5065170;28;19910;-71
2023/01/09 02:59:23;;;;;;;;;;;12.30;99.90;;;;;;5060613;28;19937;-75
2023/01/09 03:02:08;;;;;;;;;;;12.30;99.90;;;;;;5069392;28;19964;-74
2023/01/09 03:04:37;;;;;;;;;;;12.40;99.90;;;;;;5066066;28;19904;-75
2023/01/09 03:07:06;;;;;;;;;;;12.30;99.90;;;;;;5061288;28;19904;-75
2023/01/09 03:09:33;;;;;;;;;;;12.30;99.90;;;;;;5063814;28;19928;-75
2023/01/09 03:12:09;;;;;;;;;;;12.40;99.90;;;;;;5062679;28;20386;-74
2023/01/09 03:14:36;;;;;;;;;;;12.40;99.90;;;;;;5077145;28;20382;-73
2023/01/09 03:17:22;;;;;;;;;;;12.40;99.90;;;;;;5092579;28;19923;-70
2023/01/09 03:20:09;;;;;;;;;;;12.50;99.90;;;;;;5091659;28;19904;-74
2023/01/09 03:22:35;;;;;;;;;;;12.50;99.90;;;;;;5069142;28;19999;-74
2023/01/09 03:25:00;;;;;;;;;;;12.40;99.90;;;;;;5078231;28;19955;-74
2023/01/09 03:27:27;;;;;;;;;;;12.40;99.90;;;;;;5080918;28;19904;-72
2023/01/09 03:29:55;;;;;;;;;;;12.40;99.90;;;;;;5071889;28;20061;-70
2023/01/09 03:32:26;;;;;;;;;;;12.40;99.90;;;;;;5073649;28;19938;-72
2023/01/09 03:34:52;;;;;;;;;;;12.40;99.90;;;;;;5078861;28;19919;-71
2023/01/09 03:37:18;;;;;;;;;;;12.40;99.90;;;;;;5069304;28;20004;-76
2023/01/09 03:39:44;;;;;;;;;;;12.40;99.90;;;;;;5061632;28;19995;-73
2023/01/09 03:42:09;;;;;;;;;;;12.50;99.90;;;;;;5062586;28;19905;-72
2023/01/09 03:44:35;;;;;;;;;;;12.50;99.90;;;;;;5061087;28;20007;-74
2023/01/09 03:47:01;;;;;;;;;;;12.50;99.90;;;;;;5052787;28;19908;-74
2023/01/09 03:49:27;;;;;;;;;;;12.50;99.90;;;;;;5052466;28;19909;-74
2023/01/09 03:51:53;;;;;;;;;;;12.60;99.90;;;;;;5062114;28;19935;-74
2023/01/09 03:54:18;;;;;;;;;;;12.60;99.90;;;;;;5062398;28;19908;-75
2023/01/09 03:56:44;;;;;;;;;;;12.60;99.90;;;;;;5058897;28;19999;-75
2023/01/09 03:59:29;;;;;;;;;;;12.60;99.90;;;;;;5070691;28;19911;-76
2023/01/09 04:02:00;;;;;;;;;;;12.60;99.90;;;;;;5071154;28;19980;-75
2023/01/09 04:04:26;;;;;;;;;;;12.70;99.90;;;;;;5069612;28;20309;-73
2023/01/09 04:06:52;;;;;;;;;;;12.70;99.90;;;;;;5071777;28;19908;-74
2023/01/09 04:09:18;;;;;;;;;;;12.70;99.90;;;;;;5071567;28;19984;-76
2023/01/09 04:11:44;;;;;;;;;;;12.70;99.90;;;;;;5071492;28;19921;-75
2023/01/09 04:14:09;;;;;;;;;;;12.70;99.90;;;;;;5071737;28;19954;-75
2023/01/09 04:16:35;;;;;;;;;;;12.70;99.90;;;;;;5070239;28;19909;-75
2023/01/09 04:19:01;;;;;;;;;;;12.70;99.90;;;;;;5071554;28;20409;-75
2023/01/09 04:21:28;;;;;;;;;;;12.70;99.90;;;;;;5071811;28;19912;-76
2023/01/09 04:24:00;;;;;;;;;;;12.70;99.90;;;;;;5071653;28;19930;-75
2023/01/09 04:26:27;;;;;;;;;;;12.80;99.90;;;;;;5071833;28;20391;-75
2023/01/09 04:28:52;;;;;;;;;;;12.80;99.90;;;;;;5071516;28;20353;-73
2023/01/09 04:31:18;;;;;;;;;;;12.80;99.90;;;;;;5072156;28;19996;-75
2023/01/09 04:33:50;;;;;;;;;;;12.80;99.90;;;;;;5071841;28;20210;-75
2023/01/09 04:36:26;;;;;;;;;;;12.80;99.90;;;;;;5030291;28;19905;-75
2023/01/09 04:38:55;;;;;;;;;;;12.80;99.90;;;;;;5049335;28;19959;-74
2023/01/09 04:44:05;;;;;;;;;;;12.80;99.90;;;;;;5049602;28;19912;-74
2023/01/09 04:46:32;;;;;;;;;;;12.80;99.90;;;;;;5049891;28;19905;-74
2023/01/09 04:48:58;;;;;;;;;;;12.90;99.90;;;;;;5049599;28;20265;-75
2023/01/09 04:51:29;;;;;;;;;;;13.00;99.90;;;;;;5049804;28;19920;-76
2023/01/09 04:53:56;;;;;;;;;;;12.90;99.90;;;;;;5049606;28;19915;-75
2023/01/09 04:56:22;;;;;;;;;;;12.90;99.90;;;;;;5049422;28;19904;-75
2023/01/09 04:58:49;;;;;;;;;;;12.90;99.90;;;;;;5047660;28;19905;-74
2023/01/09 05:01:15;;;;;;;;;;;12.90;99.90;;;;;;5031634;28;19905;-74
2023/01/09 05:03:41;;;;;;;;;;;12.80;99.90;;;;;;5029364;28;20075;-75
2023/01/09 05:06:07;;;;;;;;;;;12.70;99.90;;;;;;5032539;28;19942;-74
2023/01/09 05:08:33;;;;;;;;;;;12.80;99.90;;;;;;5071256;28;20352;-74
2023/01/09 05:10:59;;;;;;;;;;;12.80;99.90;;;;;;5071997;28;20023;-74
2023/01/09 05:13:27;;;;;;;;;;;12.70;99.90;;;;;;5074405;28;19905;-71
2023/01/09 05:15:53;;;;;;;;;;;12.80;99.90;;;;;;5067776;28;19904;-70
2023/01/09 05:18:19;;;;;;;;;;;12.80;99.90;;;;;;5077780;28;19919;-69
2023/01/09 05:20:44;;;;;;;;;;;12.80;99.90;;;;;;5091673;28;19904;-74
2023/01/09 05:23:10;;;;;;;;;;;12.70;99.90;;;;;;5095521;28;20006;-71
2023/01/09 05:25:37;;;;;;;;;;;12.70;99.90;;;;;;5086887;28;20355;-74
2023/01/09 05:28:04;;;;;;;;;;;12.60;99.90;;;;;;5094547;28;19904;-70
2023/01/09 05:30:30;;;;;;;;;;;12.60;99.90;;;;;;5069279;28;19981;-75
2023/01/09 05:33:11;;;;;;;;;;;12.50;99.90;;;;;;5056360;28;20309;-77
2023/01/09 05:35:39;;;;;;;;;;;12.50;99.90;;;;;;5079175;28;19912;-75
2023/01/09 05:38:08;;;;;;;;;;;12.50;99.90;;;;;;5074953;28;19991;-74
2023/01/09 05:40:35;;;;;;;;;;;12.50;99.90;;;;;;5074785;28;20360;-75
2023/01/09 05:43:01;;;;;;;;;;;12.50;99.90;;;;;;5074633;28;19924;-75
2023/01/09 05:45:27;;;;;;;;;;;12.50;99.90;;;;;;5074704;28;20341;-75
2023/01/09 05:47:54;;;;;;;;;;;12.50;99.90;;;;;;5074398;28;19904;-75
2023/01/09 05:50:20;;;;;;;;;;;12.50;99.90;;;;;;5074796;28;20343;-74
2023/01/09 05:52:46;;;;;;;;;;;12.60;99.90;;;;;;5074644;28;19932;-75
2023/01/09 05:55:12;;;;;;;;;;;12.60;99.90;;;;;;5076530;28;19974;-75
2023/01/09 05:57:38;;;;;;;;;;;12.60;99.90;;;;;;5082402;28;19911;-75
2023/01/09 06:00:06;;;;;;;;;;;12.60;99.90;;;;;;5074434;28;20284;-69
2023/01/09 06:02:34;;;;;;;;;;;12.60;99.90;;;;;;5074376;28;20011;-75
2023/01/09 06:05:01;;;;;;;;;;;12.60;99.90;;;;;;5074323;28;19908;-75
2023/01/09 06:07:27;;;;;;;;;;;12.60;99.90;;;;;;5074205;28;20007;-74
2023/01/09 06:09:53;;;;;;;;;;;12.60;99.90;;;;;;5083025;28;19999;-78
2023/01/09 06:12:25;;;;;;;;;;;12.60;99.90;;;;;;5089432;28;19923;-77
2023/01/09 06:15:11;;;;;;;;;;;12.60;99.90;;;;;;5093753;28;20367;-77
2023/01/09 06:17:36;;;;;;;;;;;12.70;99.90;;;;;;5076450;28;19954;-76
2023/01/09 06:20:05;;;;;;;;;;;12.70;99.90;;;;;;5094464;28;19904;-77
2023/01/09 06:22:31;;;;;;;;;;;12.70;99.90;;;;;;5094700;28;19927;-76
2023/01/09 06:25:09;;;;;;;;;;;12.70;99.90;;;;;;5094671;28;20260;-76
2023/01/09 06:27:35;;;;;;;;;;;12.70;99.90;;;;;;5075844;28;19939;-75
2023/01/09 06:30:01;;;;;;;;;;;12.80;99.90;;;;;;5093348;28;19970;-77
2023/01/09 06:32:38;;;;;;;;;;;12.80;99.90;;;;;;5075239;28;19977;-76
2023/01/09 06:35:04;;;;;;;;;;;12.80;99.90;;;;;;5093736;28;19911;-78
2023/01/09 06:37:30;;;;;;;;;;;12.80;99.90;;;;;;5093845;28;19904;-76
2023/01/09 06:39:56;;;;;;;;;;;12.80;99.90;;;;;;5093548;28;19904;-76
2023/01/09 06:42:22;;;;;;;;;;;12.80;99.90;;;;;;5093796;28;20236;-77
2023/01/09 06:44:49;;;;;;;;;;;12.90;99.90;;;;;;5074957;28;19908;-76
2023/01/09 06:47:15;;;;;;;;;;;13.10;99.90;;;;;;5093248;28;19904;-76
2023/01/09 06:49:40;;;;;;;;;;;13.50;99.90;;;;;;5093433;28;19927;-75
2023/01/09 06:52:06;;;;;;;;;;;13.80;99.90;;;;;;5092732;28;19912;-75
2023/01/09 06:54:33;;;;;;;;;;;14.30;99.90;;;;;;5074858;28;19907;-75
2023/01/09 06:56:58;;;;;;;;;;;14.20;99.90;;;;;;5093014;28;19903;-74
2023/01/09 06:59:25;;;;;;;;;;;14.40;99.90;;;;;;5092514;28;19923;-74
2023/01/09 07:01:57;;;;;;;;;;;14.50;99.90;;;;;;5092497;28;19904;-75
2023/01/09 07:04:23;;;;;;;;;;;14.70;99.90;;;;;;5092541;28;19911;-74
2023/01/09 07:06:55;;;;;;;;;;;14.70;99.90;;;;;;5092564;28;19908;-75
2023/01/09 07:09:21;;;;;;;;;;;14.80;99.90;;;;;;5093291;28;19910;-75
2023/01/09 07:11:47;;;;;;;;;;;15.00;99.90;;;;;;5092776;28;19912;-76
2023/01/09 07:14:15;;;;;;;;;;;15.40;99.90;;;;;;5093031;28;20275;-75
2023/01/09 07:16:43;;;;;;;;;;;15.80;99.90;;;;;;5093041;28;20006;-72
2023/01/09 07:19:09;;;;;;;;;;;15.60;99.90;;;;;;5093359;28;19930;-72
2023/01/09 07:21:36;;;;;;;;;;;15.80;99.90;;;;;;5093276;28;19946;-72
2023/01/09 07:24:25;;;;;;;;;;;15.60;99.90;;;;;;5093129;28;19971;-73
2023/01/09 07:26:51;;;;;;;;;;;15.60;99.90;;;;;;5093248;28;19999;-74
2023/01/09 07:29:26;;;;;;;;;;;15.40;99.90;;;;;;5057338;28;19982;-74
2023/01/09 07:31:57;;;;;;;;;;;15.20;99.90;;;;;;5093172;28;19969;-74
2023/01/09 07:34:36;;;;;;;;;;;14.90;99.90;;;;;;5092291;28;19904;-73
2023/01/09 07:37:02;;;;;;;;;;;14.70;99.90;;;;;;5092926;28;19904;-72
2023/01/09 07:39:27;;;;;;;;;;;14.50;99.90;;;;;;5092953;28;19958;-72
2023/01/09 07:41:59;;;;;;;;;;;14.40;99.90;;;;;;5093089;28;19942;-72
2023/01/09 07:44:25;;;;;;;;;;;14.40;99.90;;;;;;5092517;28;19904;-72
2023/01/09 07:47:00;;;;;;;;;;;14.30;99.90;;;;;;5092728;28;19911;-74
2023/01/09 07:49:26;;;;;;;;;;;14.30;99.90;;;;;;5074605;28;19908;-75
2023/01/09 07:51:52;;;;;;;;;;;14.30;99.90;;;;;;5092721;28;20367;-69
2023/01/09 07:54:17;;;;;;;;;;;14.30;99.90;;;;;;5092794;28;19995;-74
2023/01/09 07:56:58;;;;;;;;;;;14.30;99.90;;;;;;5087436;28;20318;-74
2023/01/09 07:59:26;;;;;;;;;;;14.50;99.90;;;;;;5072520;28;19957;-70
2023/01/09 08:01:52;;;;;;;;;;;14.60;99.90;;;;;;5072342;28;19916;-68
2023/01/09 08:04:18;;;;;;;;;;;14.70;99.90;;;;;;5054572;28;19908;-67
2023/01/09 08:06:44;;;;;;;;;;;14.70;99.90;;;;;;5072372;28;19984;-67
2023/01/09 08:09:10;;;;;;;;;;;14.60;99.90;;;;;;5072516;28;20221;-66
2023/01/09 08:11:35;;;;;;;;;;;14.60;99.90;;;;;;5053937;28;19912;-67
2023/01/09 08:14:01;;;;;;;;;;;14.60;99.90;;;;;;5072322;28;19908;-67
2023/01/09 08:16:28;;;;;;;;;;;14.80;99.90;;;;;;5072073;28;19905;-67
2023/01/09 08:18:53;;;;;;;;;;;14.90;99.90;;;;;;5072170;28;19940;-66
2023/01/09 08:21:19;;;;;;;;;;;15.00;99.90;;;;;;5072050;28;19998;-67
2023/01/09 08:23:45;;;;;;;;;;;15.10;99.90;;;;;;5054096;28;19912;-66
2023/01/09 08:26:11;;;;;;;;;;;15.10;99.90;;;;;;5053994;28;20241;-66
2023/01/09 08:28:36;;;;;;;;;;;15.00;99.90;;;;;;5072027;28;20361;-66
2023/01/09 08:31:02;;;;;;;;;;;14.90;99.90;;;;;;5072427;28;20012;-64
2023/01/09 08:33:29;;;;;;;;;;;14.90;99.90;;;;;;5072400;28;19905;-66
2023/01/09 08:35:55;;;;;;;;;;;14.80;99.90;;;;;;5070888;28;19908;-66
2023/01/09 08:38:23;;;;;;;;;;;14.80;99.90;;;;;;5072129;28;19905;-67
2023/01/09 08:40:49;;;;;;;;;;;14.70;99.90;;;;;;5072732;28;19928;-68
2023/01/09 08:48:47;;;;;;;;;;;14.90;99.90;;;;;;5043778;28;19919;-64
2023/01/09 08:51:14;;;;;;;;;;;15.10;99.90;;;;;;5075459;28;19998;-66
2023/01/09 08:53:39;;;;;;;;;;;15.50;99.90;;;;;;5077423;28;19958;-66
2023/01/09 08:56:05;;;;;;;;;;;15.80;99.90;;;;;;5095915;28;19999;-67
2023/01/09 08:58:31;;;;;;;;;;;16.10;99.90;;;;;;5074535;28;19908;-67
2023/01/09 09:00:57;;;;;;;;;;;16.20;99.90;;;;;;5041000;28;19915;-68
2023/01/09 09:03:23;;;;;;;;;;;16.50;99.90;;;;;;5075291;28;19951;-67
2023/01/09 09:05:49;;;;;;;;;;;16.30;99.90;;;;;;5075533;28;20006;-67
2023/01/09 09:08:15;;;;;;;;;;;16.30;99.90;;;;;;5073807;28;20336;-65
2023/01/09 09:10:42;;;;;;;;;;;15.90;99.90;;;;;;5075645;28;19904;-66
2023/01/09 09:13:09;;;;;;;;;;;16.10;99.90;;;;;;5075402;28;19912;-65
2023/01/09 09:15:36;;;;;;;;;;;16.40;99.90;;;;;;5075009;28;19904;-66
2023/01/09 09:18:04;;;;;;;;;;;16.30;99.90;;;;;;5075054;28;19905;-66
2023/01/09 09:20:31;;;;;;;;;;;16.30;99.90;;;;;;5075331;28;19909;-66
2023/01/09 09:22:58;;;;;;;;;;;16.30;99.90;;;;;;5075055;28;19905;-65
2023/01/09 09:25:24;;;;;;;;;;;16.40;99.90;;;;;;5057058;28;19959;-66
2023/01/09 09:27:51;;;;;;;;;;;16.50;99.90;;;;;;5075315;28;19919;-66
2023/01/09 09:30:19;;;;;;;;;;;16.60;99.90;;;;;;5075496;28;19928;-66
2023/01/09 09:32:45;;;;;;;;;;;16.70;99.90;;;;;;5095659;28;20336;-66
2023/01/09 09:35:12;;;;;;;;;;;16.80;99.90;;;;;;5095518;28;19911;-65
2023/01/09 09:37:39;;;;;;;;;;;16.90;99.90;;;;;;5076866;28;19954;-66
2023/01/09 09:40:07;;;;;;;;;;;16.90;99.90;;;;;;5077019;28;19908;-66
2023/01/09 09:45:46;;;;;;;;;;;16.90;99.90;;;;;;5094994;28;19999;-67
2023/01/09 09:48:20;;;;;;;;;;;16.70;99.90;;;;;;5095286;28;19910;-66
2023/01/09 09:50:50;;;;;;;;;;;16.80;99.90;;;;;;5094667;28;19911;-67
2023/01/09 09:53:20;;;;;;;;;;;16.90;99.90;;;;;;5094993;28;19904;-67
2023/01/09 09:55:47;;;;;;;;;;;17.10;99.90;;;;;;5076722;28;19939;-68
2023/01/09 09:58:19;;;;;;;;;;;17.40;99.90;;;;;;5076740;28;19905;-66
2023/01/09 10:00:50;;;;;;;;;;;17.60;99.90;;;;;;5094821;28;19923;-66
2023/01/09 10:03:23;;;;;;;;;;;17.70;99.90;;;;;;5095691;28;19907;-67
2023/01/09 10:05:50;;;;;;;;;;;17.80;99.90;;;;;;5094477;28;19904;-67
2023/01/09 10:08:34;;;;;;;;;;;18.20;99.90;;;;;;5092782;28;19915;-72
2023/01/09 10:11:01;;;;;;;;;;;18.30;99.90;;;;;;5094037;28;19961;-68
2023/01/09 10:16:30;;;;;;;;;;;18.30;99.90;;;;;;5094569;28;19915;-67
2023/01/09 10:19:03;;;;;;;;;;;18.30;99.90;;;;;;5094783;28;19994;-65
2023/01/09 10:21:47;;;;;;;;;;;18.20;99.90;;;;;;5075885;28;19911;-68
2023/01/09 10:24:16;;;;;;;;;;;18.20;99.90;;;;;;5094616;28;19904;-66
2023/01/09 10:26:47;;;;;;;;;;;18.20;99.90;;;;;;5089137;28;19910;-65
2023/01/09 10:29:25;;;;;;;;;;;18.30;99.90;;;;;;5073263;28;19918;-67
2023/01/09 10:31:54;;;;;;;;;;;18.40;99.90;;;;;;5074031;28;19916;-66
2023/01/09 10:34:22;;;;;;;;;;;18.50;99.90;;;;;;5074040;28;19904;-66
2023/01/09 10:36:54;;;;;;;;;;;18.20;99.90;;;;;;5079201;28;19908;-66
2023/01/09 10:39:23;;;;;;;;;;;18.10;99.90;;;;;;5090724;28;19983;-67
2023/01/09 10:41:56;;;;;;;;;;;17.80;99.90;;;;;;5087458;28;20352;-68
2023/01/09 10:44:24;;;;;;;;;;;17.70;99.90;;;;;;5093554;28;20283;-63
2023/01/09 10:46:54;;;;;;;;;;;17.60;99.90;;;;;;5094559;28;19907;-66
2023/01/09 10:49:21;;;;;;;;;;;17.70;99.90;;;;;;5089645;28;19912;-66
2023/01/09 10:51:49;;;;;;;;;;;17.60;99.90;;;;;;5089271;28;20320;-66
2023/01/09 10:54:22;;;;;;;;;;;17.70;99.90;;;;;;5093474;28;19946;-67
2023/01/09 10:56:55;;;;;;;;;;;17.80;99.90;;;;;;5087606;28;20446;-66
2023/01/09 10:59:22;;;;;;;;;;;17.90;99.90;;;;;;5073159;28;20228;-66
2023/01/09 11:01:48;;;;;;;;;;;18.10;99.90;;;;;;5073042;28;19908;-67
2023/01/09 11:04:28;;;;;;;;;;;18.20;99.90;;;;;;5072861;28;20327;-67
2023/01/09 11:07:04;;;;;;;;;;;18.20;99.90;;;;;;5071248;28;20360;-67
2023/01/09 11:09:49;;;;;;;;;;;18.10;99.90;;;;;;5072053;28;19915;-65
2023/01/09 11:12:25;;;;;;;;;;;18.10;99.90;;;;;;5072457;28;19912;-67
2023/01/09 11:14:51;;;;;;;;;;;18.20;99.90;;;;;;5088569;28;20421;-67
2023/01/09 11:17:22;;;;;;;;;;;18.20;99.90;;;;;;5093467;28;19908;-67
2023/01/09 11:20:08;;;;;;;;;;;18.10;99.90;;;;;;5091744;28;19904;-67
2023/01/09 11:22:50;;;;;;;;;;;18.10;99.90;;;;;;5075696;28;19904;-68
2023/01/09 11:25:19;;;;;;;;;;;18.00;99.90;;;;;;5084781;28;19905;-68
2023/01/09 11:28:04;;;;;;;;;;;18.00;99.90;;;;;;5072389;28;19976;-67
2023/01/09 11:30:36;;;;;;;;;;;17.80;99.90;;;;;;5072183;28;19921;-65
2023/01/09 11:33:17;;;;;;;;;;;17.50;99.90;;;;;;5054635;28;19935;-66
2023/01/09 11:36:03;;;;;;;;;;;17.30;99.90;;;;;;5077382;28;19904;-67
2023/01/09 11:38:43;;;;;;;;;;;17.10;99.90;;;;;;5078852;28;19984;-68
2023/01/09 11:41:15;;;;;;;;;;;17.10;99.90;;;;;;5092669;28;19904;-66
2023/01/09 11:43:44;;;;;;;;;;;16.90;99.90;;;;;;5092837;28;19904;-66
2023/01/09 11:46:33;;;;;;;;;;;16.90;99.90;;;;;;5074367;28;20427;-67
2023/01/09 11:48:59;;;;;;;;;;;17.00;99.90;;;;;;5093073;28;20352;-67
2023/01/09 11:51:27;;;;;;;;;;;16.90;99.90;;;;;;5092425;28;19916;-67
2023/01/09 11:54:11;;;;;;;;;;;17.00;99.90;;;;;;5092267;28;19918;-66
2023/01/09 11:56:37;;;;;;;;;;;17.00;99.90;;;;;;5088018;28;20284;-67
2023/01/09 11:59:10;;;;;;;;;;;16.90;99.90;;;;;;5071977;28;19969;-67
2023/01/09 12:01:54;;;;;;;;;;;16.90;99.90;;;;;;5071741;28;19954;-66
2023/01/09 12:04:27;;;;;;;;;;;17.00;99.90;;;;;;5071690;28;20007;-65
2023/01/09 12:07:05;;;;;;;;;;;17.00;99.90;;;;;;5071518;28;20007;-66
2023/01/09 12:09:50;;;;;;;;;;;17.00;99.90;;;;;;5072368;28;19905;-67
2023/01/09 12:12:34;;;;;;;;;;;16.90;99.90;;;;;;5072083;28;19913;-67
2023/01/09 12:15:18;;;;;;;;;;;16.90;99.90;;;;;;5070931;28;19931;-66
2023/01/09 12:18:03;;;;;;;;;;;16.80;99.90;;;;;;5091610;28;19904;-67
2023/01/09 12:20:37;;;;;;;;;;;16.90;99.90;;;;;;5093579;28;19922;-67
2023/01/09 12:23:12;;;;;;;;;;;16.80;99.90;;;;;;5096329;28;19904;-67
2023/01/09 12:25:50;;;;;;;;;;;16.80;99.90;;;;;;5096432;28;19904;-67
2023/01/09 12:28:35;;;;;;;;;;;16.70;99.90;;;;;;5096438;28;19912;-67
2023/01/09 12:31:14;;;;;;;;;;;16.70;99.90;;;;;;5096600;28;20380;-67
2023/01/09 12:33:58;;;;;;;;;;;16.80;99.90;;;;;;5079057;28;20283;-68
2023/01/09 12:36:37;;;;;;;;;;;16.70;99.90;;;;;;5096565;28;19904;-66
2023/01/09 12:39:04;;;;;;;;;;;16.80;99.90;;;;;;5097201;28;19979;-67
2023/01/09 12:41:42;;;;;;;;;;;16.60;99.90;;;;;;5096585;28;19908;-65
2023/01/09 12:44:08;;;;;;;;;;;16.60;99.90;;;;;;5078197;28;20315;-67
2023/01/09 12:47:00;;;;;;;;;;;16.60;99.90;;;;;;5096281;28;19951;-68
2023/01/09 12:49:46;;;;;;;;;;;16.60;99.90;;;;;;5065004;28;19904;-66
2023/01/09 12:52:19;;;;;;;;;;;16.60;99.90;;;;;;5093760;28;19912;-68
2023/01/09 12:54:48;;;;;;;;;;;16.60;99.90;;;;;;5094624;28;19973;-67
2023/01/09 12:57:24;;;;;;;;;;;16.60;99.90;;;;;;5085215;28;19905;-68
2023/01/09 12:59:52;;;;;;;;;;;16.70;99.90;;;;;;5057140;28;19954;-69
2023/01/09 13:02:31;;;;;;;;;;;16.70;99.90;;;;;;5075517;28;19911;-68
2023/01/09 13:05:17;;;;;;;;;;;16.90;99.90;;;;;;5075716;28;19912;-68
2023/01/09 13:08:01;;;;;;;;;;;16.90;99.90;;;;;;5071413;28;19959;-69
2023/01/09 13:10:32;;;;;;;;;;;16.90;99.90;;;;;;5075346;28;19944;-68
2023/01/09 13:12:59;;;;;;;;;;;16.90;99.90;;;;;;5075763;28;19973;-68
2023/01/09 13:15:31;;;;;;;;;;;16.90;99.90;;;;;;5075174;28;19911;-68
2023/01/09 13:18:06;;;;;;;;;;;17.00;99.90;;;;;;5075636;28;20007;-68
2023/01/09 13:20:38;;;;;;;;;;;16.90;99.90;;;;;;5075682;28;19905;-67
2023/01/09 13:23:04;;;;;;;;;;;16.90;99.90;;;;;;5075703;28;20279;-68
2023/01/09 13:25:30;;;;;;;;;;;16.80;99.90;;;;;;5075901;28;20376;-68
2023/01/09 13:27:58;;;;;;;;;;;16.80;99.90;;;;;;5076023;28;19912;-69
2023/01/09 13:30:40;;;;;;;;;;;16.70;99.90;;;;;;5075155;28;19923;-67
2023/01/09 13:33:13;;;;;;;;;;;16.60;99.90;;;;;;5074699;28;19912;-67
2023/01/09 13:36:05;;;;;;;;;;;16.70;99.90;;;;;;5075812;28;19904;-68
2023/01/09 13:38:32;;;;;;;;;;;16.70;99.90;;;;;;5071985;28;19909;-67
2023/01/09 13:44:24;;;;;;;;;;;16.80;99.90;;;;;;5053568;28;20328;-67
2023/01/09 13:47:01;;;;;;;;;;;16.60;99.90;;;;;;5076985;28;20420;-67
2023/01/09 13:49:52;;;;;;;;;;;16.60;99.90;;;;;;5095553;28;19958;-67
2023/01/09 13:52:32;;;;;;;;;;;16.60;99.90;;;;;;5095279;28;20018;-68
2023/01/09 13:54:59;;;;;;;;;;;16.50;99.90;;;;;;5095746;28;19904;-68
2023/01/09 13:57:35;;;;;;;;;;;16.40;99.90;;;;;;5094719;28;20394;-68
2023/01/09 14:00:05;;;;;;;;;;;16.40;99.90;;;;;;5094588;28;19904;-62
2023/01/09 14:02:43;;;;;;;;;;;16.30;99.90;;;;;;5095282;28;19915;-67
2023/01/09 14:05:24;;;;;;;;;;;16.30;99.90;;;;;;5094747;28;20416;-67
2023/01/09 14:08:12;;;;;;;;;;;16.20;99.90;;;;;;5094541;28;19908;-65
2023/01/09 14:10:38;;;;;;;;;;;16.20;99.90;;;;;;5075497;28;19904;-66
2023/01/09 14:13:28;;;;;;;;;;;16.10;99.90;;;;;;5094952;28;19912;-65
2023/01/09 14:16:05;;;;;;;;;;;16.20;99.90;;;;;;5094400;28;20350;-65
2023/01/09 14:18:33;;;;;;;;;;;16.10;99.90;;;;;;5094910;28;19908;-67
2023/01/09 14:21:04;;;;;;;;;;;16.00;99.90;;;;;;5094617;28;19905;-66
2023/01/09 14:23:51;;;;;;;;;;;15.90;99.90;;;;;;5094840;28;19904;-66
2023/01/09 14:26:18;;;;;;;;;;;15.90;99.90;;;;;;5076230;28;20356;-65
2023/01/09 14:28:44;;;;;;;;;;;16.00;99.90;;;;;;5094503;28;20002;-63
2023/01/09 14:31:25;;;;;;;;;;;15.90;99.90;;;;;;5063966;28;19919;-65
2023/01/09 14:34:10;;;;;;;;;;;15.90;99.90;;;;;;5045623;28;19953;-64
2023/01/09 14:36:37;;;;;;;;;;;15.70;99.90;;;;;;5062783;28;20418;-66
2023/01/09 14:39:06;;;;;;;;;;;15.60;99.90;;;;;;5063172;28;19927;-67
2023/01/09 14:44:43;;;;;;;;;;;15.70;99.90;;;;;;5062872;28;19959;-66
2023/01/09 14:47:21;;;;;;;;;;;15.70;99.90;;;;;;5042966;28;19905;-66
2023/01/09 14:49:55;;;;;;;;;;;15.70;99.90;;;;;;5053840;28;20371;-67
2023/01/09 14:52:24;;;;;;;;;;;15.70;99.90;;;;;;5053475;28;19928;-66
2023/01/09 14:54:53;;;;;;;;;;;15.70;99.90;;;;;;5053534;28;19905;-67
2023/01/09 14:57:23;;;;;;;;;;;15.70;99.90;;;;;;5063095;28;19911;-71
2023/01/09 14:59:59;;;;;;;;;;;15.80;99.90;;;;;;5072551;28;20336;-70
2023/01/09 15:02:29;;;;;;;;;;;15.80;99.90;;;;;;5074352;28;19912;-70
2023/01/09 15:05:04;;;;;;;;;;;15.90;99.90;;;;;;5073597;28;19909;-69